Аэропорт: Стригино. Нижний Новгород

ICAO: UWGG

METAR:
2022-06-26 11:00:00
UWGG 261100Z 02006MPS CAVOK 25/07 Q1020 R36R/090070 TEMPO 34008G13MPS
METAR:
2022-06-26 07:50:00
TAF UWGG 260750Z 2609/2709 01003G09MPS 9999 SCT040 TX28/2612Z TN15/2701Z TEMPO 2609/2615 36008G14MPS